METAR Data
IDs: Format: Raw Decoded Include TAF

Data at: 0252 UTC 10 Dec 2022

METAR for:KFFO (Wright Patterson AFB, OH, US)
Text:KFFO 100155Z 04005KT 6SM BR OVC007 05/05 A3010 RMK AO2A SLP201 T00540047
Temperature: 5.4°C ( 42°F)
Dewpoint: 4.7°C ( 40°F) [RH = 95%]
Pressure (altimeter):30.10 inches Hg (1019.4 mb) [Sea level pressure: 1020.1 mb]
Winds:from the NE (40 degrees) at 6 MPH (5 knots; 2.6 m/s)
Visibility: 6 sm ( 10 km)
Ceiling:700 feet AGL
Clouds: overcast cloud deck at 700 feet AGL
Weather:BR (mist)